createdAt,value
2022-10-18T00:00:17.404Z,5.40
2022-10-18T00:02:15.782Z,5.34
2022-10-18T00:04:14.189Z,5.26
2022-10-18T00:06:12.517Z,5.20
2022-10-18T00:08:10.785Z,5.10
2022-10-18T00:10:11.445Z,5.10
2022-10-18T00:12:09.560Z,5.10
2022-10-18T00:14:07.871Z,5.07
2022-10-18T00:16:11.327Z,5.17
2022-10-18T00:18:09.605Z,5.14
2022-10-18T00:20:09.003Z,5.22
2022-10-18T00:22:07.180Z,5.17
2022-10-18T00:24:06.171Z,5.22
2022-10-18T00:26:08.560Z,5.07
2022-10-18T00:28:06.952Z,5.01
2022-10-18T00:30:07.118Z,4.93
2022-10-18T00:32:05.682Z,4.91
2022-10-18T00:34:05.951Z,4.91
2022-10-18T00:36:04.158Z,4.94
2022-10-18T00:38:02.476Z,5.04
2022-10-18T00:40:00.583Z,5.12
2022-10-18T00:42:00.184Z,5.18
2022-10-18T00:44:01.659Z,5.11
2022-10-18T00:46:00.077Z,4.93
2022-10-18T00:48:01.155Z,4.86
2022-10-18T00:50:04.681Z,4.88
2022-10-18T00:52:07.738Z,4.78
2022-10-18T00:54:06.197Z,4.73
2022-10-18T00:56:04.526Z,4.68
2022-10-18T00:58:05.196Z,4.63
2022-10-18T01:00:07.564Z,4.60
2022-10-18T01:02:06.934Z,4.64
2022-10-18T01:04:05.381Z,4.74
2022-10-18T01:06:03.737Z,4.79
2022-10-18T01:08:32.436Z,4.84
2022-10-18T01:10:39.129Z,4.78
2022-10-18T01:12:54.990Z,4.85
2022-10-18T01:15:01.512Z,4.86
2022-10-18T01:17:03.198Z,4.72
2022-10-18T01:19:05.021Z,4.56
2022-10-18T01:21:12.254Z,4.52
2022-10-18T01:23:18.918Z,4.42
2022-10-18T01:25:28.272Z,4.37
2022-10-18T01:27:39.906Z,4.43
2022-10-18T01:29:49.580Z,4.45
2022-10-18T01:31:55.284Z,4.34
2022-10-18T01:36:07.004Z,4.29
2022-10-18T01:38:11.664Z,4.41
2022-10-18T01:40:10.438Z,4.47
2022-10-18T01:42:13.491Z,4.51
2022-10-18T01:44:17.037Z,4.50
2022-10-18T01:46:20.360Z,4.47
2022-10-18T01:48:20.894Z,4.53
2022-10-18T01:50:29.439Z,4.44
2022-10-18T01:52:27.853Z,4.31
2022-10-18T01:54:32.142Z,4.25
2022-10-18T01:56:43.021Z,4.21
2022-10-18T01:58:48.746Z,4.14
2022-10-18T02:00:56.730Z,4.09
2022-10-18T02:03:00.814Z,4.11
2022-10-18T02:05:07.600Z,4.04
2022-10-18T02:07:15.382Z,4.06
2022-10-18T02:09:19.794Z,4.05
2022-10-18T02:11:18.731Z,3.99
2022-10-18T02:13:21.927Z,4.03
2022-10-18T02:15:27.572Z,3.96
2022-10-18T02:17:28.036Z,4.10
2022-10-18T02:19:29.864Z,4.16
2022-10-18T02:21:30.690Z,4.18
2022-10-18T02:23:29.165Z,4.18
2022-10-18T02:25:31.660Z,4.20
2022-10-18T02:27:30.400Z,4.19
2022-10-18T02:29:29.209Z,4.10
2022-10-18T02:31:32.192Z,3.97
2022-10-18T02:33:35.583Z,3.91
2022-10-18T02:35:37.908Z,3.83
2022-10-18T02:37:40.050Z,3.75
2022-10-18T02:39:41.667Z,3.78
2022-10-18T02:41:40.048Z,3.82
2022-10-18T02:43:38.283Z,3.79
2022-10-18T02:45:36.661Z,3.78
2022-10-18T02:47:35.113Z,3.80
2022-10-18T02:49:33.552Z,3.77
2022-10-18T02:51:31.936Z,3.89
2022-10-18T02:53:31.519Z,3.94
2022-10-18T02:57:33.092Z,3.94
2022-10-18T02:59:31.337Z,3.97
2022-10-18T03:01:29.620Z,3.93
2022-10-18T03:03:27.996Z,3.79
2022-10-18T03:05:26.553Z,3.69
2022-10-18T03:07:24.916Z,3.68
2022-10-18T03:09:24.580Z,3.59
2022-10-18T03:11:22.857Z,3.56
2022-10-18T03:13:21.485Z,3.59
2022-10-18T03:15:19.790Z,3.64
2022-10-18T03:17:17.955Z,3.57
2022-10-18T03:19:16.478Z,3.58
2022-10-18T03:21:14.793Z,3.58
2022-10-18T03:23:12.879Z,3.54
2022-10-18T03:25:12.561Z,3.58
2022-10-18T03:27:10.753Z,3.55
2022-10-18T03:29:08.901Z,3.52
2022-10-18T03:31:07.327Z,3.48
2022-10-18T03:33:05.395Z,3.46
2022-10-18T03:35:03.644Z,3.43
2022-10-18T03:37:04.733Z,3.41
2022-10-18T03:39:03.695Z,3.47
2022-10-18T03:41:03.417Z,3.64
2022-10-18T03:43:01.770Z,3.59
2022-10-18T03:45:00.037Z,3.53
2022-10-18T03:46:58.395Z,3.56
2022-10-18T03:48:56.510Z,3.47
2022-10-18T03:50:54.927Z,3.40
2022-10-18T03:52:54.269Z,3.38
2022-10-18T03:54:52.602Z,3.37
2022-10-18T03:56:52.430Z,3.41
2022-10-18T03:58:50.694Z,3.38
2022-10-18T04:00:51.193Z,3.33
2022-10-18T04:02:52.080Z,3.30
2022-10-18T04:04:53.634Z,3.29
2022-10-18T04:06:51.973Z,3.32
2022-10-18T04:08:50.246Z,3.33
2022-10-18T04:10:49.403Z,3.26
2022-10-18T04:12:49.359Z,3.18
2022-10-18T04:14:47.551Z,3.16
2022-10-18T04:16:45.750Z,3.21
2022-10-18T04:18:44.121Z,3.25
2022-10-18T04:20:42.300Z,3.22
2022-10-18T04:22:40.630Z,3.15
2022-10-18T04:24:38.995Z,3.15
2022-10-18T04:26:37.242Z,3.22
2022-10-18T04:28:40.452Z,3.32
2022-10-18T04:30:38.773Z,3.36
2022-10-18T04:32:37.349Z,3.35
2022-10-18T04:34:35.788Z,3.38
2022-10-18T04:36:33.952Z,3.38
2022-10-18T04:38:32.478Z,3.42
2022-10-18T04:40:30.879Z,3.46
2022-10-18T04:42:29.149Z,3.34
2022-10-18T04:44:28.651Z,3.24
2022-10-18T04:46:27.097Z,3.19
2022-10-18T04:48:25.281Z,3.16
2022-10-18T04:50:23.508Z,3.11
2022-10-18T04:52:22.901Z,3.06
2022-10-18T04:54:22.867Z,3.12
2022-10-18T04:56:23.905Z,3.11
2022-10-18T04:58:22.128Z,3.16
2022-10-18T05:00:21.826Z,3.18
2022-10-18T05:02:20.118Z,3.43
2022-10-18T05:04:18.317Z,3.97
2022-10-18T05:06:16.668Z,4.55
2022-10-18T05:08:14.919Z,4.94
2022-10-18T05:10:13.172Z,5.24
2022-10-18T05:12:11.523Z,5.27
2022-10-18T05:14:10.273Z,5.46
2022-10-18T05:16:10.900Z,5.42
2022-10-18T05:18:09.203Z,5.20
2022-10-18T05:20:08.153Z,5.06
2022-10-18T05:22:09.385Z,4.97
2022-10-18T05:24:08.218Z,4.89
2022-10-18T05:26:08.012Z,4.77
2022-10-18T05:28:10.790Z,4.69
2022-10-18T05:30:20.831Z,4.68
2022-10-18T05:32:20.375Z,4.61
2022-10-18T05:34:20.725Z,4.71
2022-10-18T05:36:18.909Z,4.76
2022-10-18T05:38:17.206Z,4.76
2022-10-18T05:40:15.954Z,4.90
2022-10-18T05:42:14.199Z,5.16
2022-10-18T05:44:12.632Z,5.23
2022-10-18T05:46:15.543Z,5.52
2022-10-18T05:48:18.529Z,6.22
2022-10-18T05:50:16.966Z,7.21
2022-10-18T05:52:18.344Z,8.43
2022-10-18T05:54:17.136Z,9.07
2022-10-18T05:56:15.421Z,9.35
2022-10-18T05:58:13.667Z,9.43
2022-10-18T06:00:13.590Z,9.65
2022-10-18T06:02:13.607Z,9.48
2022-10-18T06:04:17.902Z,9.44
2022-10-18T06:06:16.983Z,10.51
2022-10-18T06:08:17.512Z,10.99
2022-10-18T06:10:15.815Z,11.52
2022-10-18T06:12:14.060Z,11.85
2022-10-18T06:14:12.447Z,11.82
2022-10-18T06:16:11.680Z,11.49
2022-10-18T06:18:09.871Z,10.68
2022-10-18T06:20:10.506Z,10.47
2022-10-18T06:22:08.834Z,10.50
2022-10-18T06:24:07.689Z,10.41
2022-10-18T06:26:07.700Z,10.08
2022-10-18T06:28:07.886Z,10.14
2022-10-18T06:32:09.858Z,9.90
2022-10-18T06:34:08.000Z,9.76
2022-10-18T06:36:09.518Z,9.63
2022-10-18T06:38:10.763Z,10.19
2022-10-18T06:40:10.191Z,11.10
2022-10-18T06:42:08.720Z,12.07
2022-10-18T06:44:13.775Z,13.10
2022-10-18T06:46:12.195Z,14.46
2022-10-18T06:48:10.577Z,14.47
2022-10-18T06:50:09.805Z,13.86
2022-10-18T06:52:09.443Z,12.72
2022-10-18T06:54:17.324Z,11.99
2022-10-18T06:56:15.986Z,11.19
2022-10-18T06:58:14.386Z,10.96
2022-10-18T07:00:14.071Z,10.83
2022-10-18T07:02:17.455Z,11.40
2022-10-18T07:04:15.785Z,11.63
2022-10-18T07:06:16.047Z,11.64
2022-10-18T07:08:15.552Z,11.89
2022-10-18T07:10:13.917Z,12.26
2022-10-18T07:12:17.732Z,12.59
2022-10-18T07:14:16.550Z,12.29
2022-10-18T07:16:18.659Z,12.16
2022-10-18T07:18:17.159Z,11.77
2022-10-18T07:20:15.628Z,11.51
2022-10-18T07:22:14.125Z,11.40
2022-10-18T07:24:13.846Z,11.25
2022-10-18T07:26:16.446Z,11.50
2022-10-18T07:28:15.102Z,11.57
2022-10-18T07:30:13.564Z,11.54
2022-10-18T07:32:11.830Z,11.54
2022-10-18T07:34:13.360Z,11.75
2022-10-18T07:36:13.359Z,11.75
2022-10-18T07:38:11.770Z,11.93
2022-10-18T07:40:13.108Z,12.62
2022-10-18T07:42:11.431Z,12.42
2022-10-18T07:44:09.853Z,12.03
2022-10-18T07:46:08.152Z,12.23
2022-10-18T07:48:06.646Z,12.96
2022-10-18T07:50:05.237Z,13.26
2022-10-18T07:52:03.706Z,13.69
2022-10-18T07:54:02.084Z,14.80
2022-10-18T07:56:04.731Z,14.88
2022-10-18T07:58:05.669Z,15.28
2022-10-18T08:00:05.126Z,15.20
2022-10-18T08:02:10.442Z,15.55
2022-10-18T08:04:11.648Z,15.92
2022-10-18T08:06:16.731Z,16.11
2022-10-18T08:08:14.846Z,16.46
2022-10-18T08:10:13.086Z,16.03
2022-10-18T08:12:12.928Z,15.41
2022-10-18T08:14:11.227Z,15.40
2022-10-18T08:16:11.474Z,15.78
2022-10-18T08:18:09.965Z,16.39
2022-10-18T08:20:19.305Z,17.15
2022-10-18T08:22:28.442Z,16.72
2022-10-18T08:24:26.760Z,16.74
2022-10-18T08:26:25.606Z,16.23
2022-10-18T08:28:25.253Z,15.91
2022-10-18T08:30:23.804Z,16.30
2022-10-18T08:32:22.132Z,16.80
2022-10-18T08:34:20.367Z,16.59
2022-10-18T08:36:20.768Z,16.90
2022-10-18T08:38:20.859Z,17.53
2022-10-18T08:40:19.152Z,18.11
2022-10-18T08:42:37.885Z,18.01
2022-10-18T08:44:45.450Z,17.41
2022-10-18T08:46:46.958Z,17.69
2022-10-18T08:48:50.092Z,17.54
2022-10-18T08:50:49.431Z,17.20
2022-10-18T08:52:54.742Z,17.09
2022-10-18T08:55:00.064Z,16.83
2022-10-18T08:57:01.834Z,16.80
2022-10-18T08:59:00.205Z,16.66
2022-10-18T09:01:09.426Z,16.38
2022-10-18T09:03:31.428Z,16.68
2022-10-18T09:05:36.249Z,17.26
2022-10-18T09:07:55.500Z,17.15
2022-10-18T09:10:00.050Z,17.57
2022-10-18T09:12:10.437Z,18.56
2022-10-18T09:14:31.659Z,20.31
2022-10-18T09:16:38.537Z,21.86
2022-10-18T09:18:53.075Z,21.85
2022-10-18T09:20:54.875Z,23.31
2022-10-18T09:22:56.476Z,24.43
2022-10-18T09:25:05.979Z,23.10
2022-10-18T09:27:11.509Z,23.91
2022-10-18T09:29:29.061Z,23.85
2022-10-18T09:31:37.739Z,23.32
2022-10-18T09:33:44.071Z,24.15
2022-10-18T09:35:48.994Z,24.44
2022-10-18T09:37:48.703Z,25.90
2022-10-18T09:39:49.496Z,26.21
2022-10-18T09:41:52.405Z,27.66
2022-10-18T09:43:56.917Z,26.71
2022-10-18T09:45:57.000Z,26.33
2022-10-18T09:48:05.157Z,28.26
2022-10-18T09:50:14.731Z,27.76
2022-10-18T09:52:20.115Z,28.52
2022-10-18T09:54:27.574Z,27.00
2022-10-18T09:56:31.388Z,26.65
2022-10-18T09:58:31.290Z,26.94
2022-10-18T10:00:33.216Z,26.67
2022-10-18T10:02:31.455Z,26.90
2022-10-18T10:04:31.163Z,27.47
2022-10-18T10:06:32.807Z,26.32
2022-10-18T10:08:35.155Z,28.49
2022-10-18T10:10:35.113Z,28.61
2022-10-18T10:12:35.354Z,28.19
2022-10-18T10:14:45.543Z,28.27
2022-10-18T10:16:48.413Z,28.19
2022-10-18T10:18:54.691Z,29.14
2022-10-18T10:20:56.711Z,29.49
2022-10-18T10:22:55.168Z,29.05
2022-10-18T10:24:55.834Z,29.33
2022-10-18T10:27:01.448Z,27.85
2022-10-18T10:28:59.928Z,29.49
2022-10-18T10:31:19.054Z,29.35
2022-10-18T10:33:37.485Z,28.98
2022-10-18T10:35:54.004Z,29.00
2022-10-18T10:37:57.772Z,28.50
2022-10-18T10:40:21.270Z,29.37
2022-10-18T10:42:22.327Z,27.28
2022-10-18T10:44:21.954Z,25.57
2022-10-18T10:46:26.978Z,24.13
2022-10-18T10:48:33.004Z,22.83
2022-10-18T10:50:31.763Z,21.47
2022-10-18T10:52:31.751Z,20.38
2022-10-18T10:54:35.862Z,19.87
2022-10-18T10:56:37.109Z,19.34
2022-10-18T10:58:38.806Z,18.89
2022-10-18T11:00:42.848Z,18.89
2022-10-18T11:02:42.583Z,18.83
2022-10-18T11:04:45.362Z,18.67
2022-10-18T11:06:59.993Z,18.68
2022-10-18T11:09:00.051Z,18.59
2022-10-18T11:11:08.552Z,18.71
2022-10-18T11:13:23.403Z,18.68
2022-10-18T11:15:27.437Z,18.61
2022-10-18T11:17:34.035Z,18.58
2022-10-18T11:19:40.429Z,18.61
2022-10-18T11:21:39.493Z,18.73
2022-10-18T11:23:39.552Z,18.89
2022-10-18T11:26:02.058Z,19.00
2022-10-18T11:28:09.587Z,19.01
2022-10-18T11:30:36.580Z,19.05
2022-10-18T11:32:40.543Z,18.96
2022-10-18T11:34:50.403Z,18.96
2022-10-18T11:37:26.476Z,18.97
2022-10-18T11:39:31.965Z,19.00
2022-10-18T11:41:39.937Z,19.00
2022-10-18T11:44:08.728Z,18.99
2022-10-18T11:46:12.074Z,19.01
2022-10-18T11:48:24.763Z,18.94
2022-10-18T11:50:31.778Z,19.09
2022-10-18T11:52:39.098Z,19.09
2022-10-18T11:54:50.090Z,18.96
2022-10-18T11:56:56.703Z,18.75
2022-10-18T11:59:21.773Z,18.81
2022-10-18T12:01:26.241Z,18.75
2022-10-18T12:03:36.301Z,18.77
2022-10-18T12:05:37.151Z,18.72
2022-10-18T12:07:43.363Z,18.81
2022-10-18T12:09:44.550Z,18.98
2022-10-18T12:11:49.385Z,19.07
2022-10-18T12:13:52.355Z,19.00
2022-10-18T12:15:53.674Z,18.97
2022-10-18T12:17:56.058Z,19.04
2022-10-18T12:19:57.514Z,18.99
2022-10-18T12:21:57.714Z,19.00
2022-10-18T12:23:59.588Z,18.96
2022-10-18T12:26:03.787Z,18.96
2022-10-18T12:28:09.235Z,18.96
2022-10-18T12:30:19.590Z,18.94
2022-10-18T12:32:23.507Z,18.98
2022-10-18T12:34:32.947Z,18.92
2022-10-18T12:37:07.677Z,18.99
2022-10-18T12:39:12.109Z,19.01
2022-10-18T12:41:20.400Z,19.05
2022-10-18T12:43:22.698Z,19.09
2022-10-18T12:45:28.795Z,19.03
2022-10-18T12:47:30.723Z,19.00
2022-10-18T12:49:31.305Z,19.01
2022-10-18T12:51:29.993Z,19.00
2022-10-18T12:53:29.317Z,19.02
2022-10-18T12:55:33.074Z,18.99
2022-10-18T12:58:03.969Z,19.02
2022-10-18T13:00:02.909Z,18.99
2022-10-18T13:02:27.929Z,18.94
2022-10-18T13:04:38.341Z,18.89
2022-10-18T13:07:19.876Z,18.89
2022-10-18T13:09:22.529Z,18.89
2022-10-18T13:11:37.013Z,18.90
2022-10-18T13:13:44.025Z,18.91
2022-10-18T13:15:47.279Z,18.90
2022-10-18T13:17:52.738Z,18.90
2022-10-18T13:20:23.908Z,18.90
2022-10-18T13:22:32.493Z,18.94
2022-10-18T13:24:36.721Z,18.90
2022-10-18T13:26:39.419Z,18.85
2022-10-18T13:28:46.946Z,18.86
2022-10-18T13:30:55.042Z,18.84
2022-10-18T13:32:59.725Z,18.87
2022-10-18T13:34:59.558Z,18.84
2022-10-18T13:37:00.509Z,18.78
2022-10-18T13:39:04.371Z,18.77
2022-10-18T13:41:04.651Z,18.71
2022-10-18T13:43:52.564Z,18.68
2022-10-18T13:45:59.827Z,18.71
2022-10-18T13:47:58.044Z,18.68
2022-10-18T13:50:19.068Z,18.70
2022-10-18T13:52:27.140Z,18.72
2022-10-18T13:54:55.372Z,18.74
2022-10-18T13:57:14.111Z,18.68
2022-10-18T13:59:33.866Z,18.66
2022-10-18T14:01:42.464Z,18.65
2022-10-18T14:04:15.934Z,18.64
2022-10-18T14:06:19.101Z,18.60
2022-10-18T14:08:21.705Z,18.60
2022-10-18T14:10:43.290Z,18.60
2022-10-18T14:12:46.020Z,18.58
2022-10-18T14:14:47.341Z,18.58
2022-10-18T14:16:49.514Z,18.56
2022-10-18T14:18:52.722Z,18.56
2022-10-18T14:21:12.664Z,18.56
2022-10-18T14:23:17.958Z,18.52
2022-10-18T14:25:23.037Z,18.47
2022-10-18T14:27:22.799Z,18.45
2022-10-18T14:29:21.526Z,18.48
2022-10-18T14:31:21.443Z,18.47
2022-10-18T14:33:26.959Z,18.47
2022-10-18T14:35:32.447Z,18.39
2022-10-18T14:37:35.997Z,18.33
2022-10-18T14:39:39.981Z,18.24
2022-10-18T14:41:48.473Z,18.24
2022-10-18T14:43:48.310Z,18.26
2022-10-18T14:45:46.869Z,18.19
2022-10-18T14:47:47.138Z,18.11
2022-10-18T14:49:45.508Z,18.10
2022-10-18T14:51:46.151Z,18.08
2022-10-18T14:53:44.387Z,18.09
2022-10-18T14:55:44.527Z,18.05
2022-10-18T14:57:43.022Z,18.06
2022-10-18T14:59:46.086Z,18.01
2022-10-18T15:01:56.097Z,17.91
2022-10-18T15:03:58.858Z,17.83
2022-10-18T15:05:59.913Z,17.74
2022-10-18T15:08:00.207Z,17.70
2022-10-18T15:10:00.661Z,17.72
2022-10-18T15:12:01.181Z,17.70
2022-10-18T15:14:03.077Z,17.69
2022-10-18T15:16:01.682Z,17.61
2022-10-18T15:18:00.886Z,17.56
2022-10-18T15:20:05.146Z,17.46
2022-10-18T15:24:33.485Z,17.17
2022-10-18T15:26:31.955Z,17.07
2022-10-18T15:28:36.055Z,16.97
2022-10-18T15:30:38.590Z,16.85
2022-10-18T15:32:37.826Z,16.68
2022-10-18T15:34:36.882Z,16.57
2022-10-18T15:36:36.026Z,16.48
2022-10-18T15:38:36.698Z,16.31
2022-10-18T15:40:39.853Z,16.11
2022-10-18T15:42:39.567Z,16.06
2022-10-18T15:44:53.030Z,15.98
2022-10-18T15:46:53.252Z,15.88
2022-10-18T15:48:51.483Z,15.76
2022-10-18T15:50:52.058Z,15.58
2022-10-18T15:52:50.424Z,15.41
2022-10-18T15:56:47.462Z,15.14
2022-10-18T15:58:47.678Z,15.07
2022-10-18T16:00:48.831Z,14.97
2022-10-18T16:02:47.665Z,14.94
2022-10-18T16:04:48.075Z,14.86
2022-10-18T16:06:46.222Z,14.80
2022-10-18T16:08:45.931Z,14.71
2022-10-18T16:10:44.133Z,14.63
2022-10-18T16:12:42.564Z,14.68
2022-10-18T16:14:40.849Z,14.65
2022-10-18T16:16:41.577Z,14.51
2022-10-18T16:18:39.949Z,14.38
2022-10-18T16:20:38.487Z,14.37
2022-10-18T16:22:37.169Z,14.29
2022-10-18T16:24:35.704Z,14.14
2022-10-18T16:26:34.294Z,14.10
2022-10-18T16:28:32.976Z,14.08
2022-10-18T16:30:35.327Z,14.13
2022-10-18T16:32:35.189Z,14.02
2022-10-18T16:34:33.521Z,14.06
2022-10-18T16:36:33.592Z,14.08
2022-10-18T16:38:35.256Z,14.04
2022-10-18T16:40:35.431Z,13.99
2022-10-18T16:42:35.848Z,13.85
2022-10-18T16:44:33.977Z,13.81
2022-10-18T16:46:34.149Z,13.72
2022-10-18T16:48:34.168Z,13.71
2022-10-18T16:50:35.334Z,13.61
2022-10-18T16:52:33.938Z,13.54
2022-10-18T16:54:32.420Z,13.46
2022-10-18T16:56:32.707Z,13.51
2022-10-18T16:58:33.986Z,13.46
2022-10-18T17:00:32.640Z,13.42
2022-10-18T17:02:31.461Z,13.33
2022-10-18T17:04:31.413Z,13.34
2022-10-18T17:06:31.823Z,13.30
2022-10-18T17:08:30.861Z,13.26
2022-10-18T17:10:29.190Z,13.22
2022-10-18T17:12:27.619Z,13.15
2022-10-18T17:14:25.977Z,13.17
2022-10-18T17:18:27.688Z,13.19
2022-10-18T17:20:28.308Z,13.12
2022-10-18T17:22:26.720Z,13.04
2022-10-18T17:24:24.949Z,12.88
2022-10-18T17:26:29.277Z,12.72
2022-10-18T17:28:37.462Z,12.51
2022-10-18T17:30:36.223Z,12.31
2022-10-18T17:32:34.581Z,12.16
2022-10-18T17:34:32.841Z,12.05
2022-10-18T17:36:37.880Z,11.93
2022-10-18T17:38:36.272Z,11.83
2022-10-18T17:40:35.811Z,11.69
2022-10-18T17:42:35.346Z,11.60
2022-10-18T17:44:33.436Z,11.52
2022-10-18T17:46:31.969Z,11.44
2022-10-18T17:48:30.265Z,11.37
2022-10-18T17:50:29.322Z,11.26
2022-10-18T17:52:29.000Z,11.20
2022-10-18T17:54:27.274Z,11.13
2022-10-18T17:56:27.347Z,11.04
2022-10-18T17:58:25.841Z,10.97
2022-10-18T18:00:24.664Z,10.93
2022-10-18T18:02:23.028Z,10.75
2022-10-18T18:04:21.410Z,10.63
2022-10-18T18:06:22.100Z,10.53
2022-10-18T18:08:21.895Z,10.42
2022-10-18T18:10:20.158Z,10.36
2022-10-18T18:12:18.241Z,10.39
2022-10-18T18:14:17.240Z,10.38
2022-10-18T18:16:17.670Z,10.50
2022-10-18T18:18:16.081Z,10.66
2022-10-18T18:20:14.229Z,10.75
2022-10-18T18:22:12.579Z,10.89
2022-10-18T18:24:14.005Z,10.89
2022-10-18T18:26:12.621Z,10.86
2022-10-18T18:28:10.840Z,10.80
2022-10-18T18:30:09.593Z,10.83
2022-10-18T18:32:11.130Z,10.80
2022-10-18T18:34:11.021Z,10.72
2022-10-18T18:36:10.041Z,10.59
2022-10-18T18:38:09.236Z,10.56
2022-10-18T18:40:10.196Z,10.59
2022-10-18T18:42:08.324Z,10.47
2022-10-18T18:44:07.498Z,10.48
2022-10-18T18:46:06.413Z,10.41
2022-10-18T18:48:04.924Z,10.47
2022-10-18T18:50:05.877Z,10.42
2022-10-18T18:52:04.385Z,10.31
2022-10-18T18:54:02.554Z,10.24
2022-10-18T18:56:07.484Z,10.30
2022-10-18T18:58:05.874Z,10.31
2022-10-18T19:00:06.691Z,10.26
2022-10-18T19:02:05.252Z,10.24
2022-10-18T19:04:04.123Z,10.14
2022-10-18T19:06:07.282Z,10.07
2022-10-18T19:08:06.677Z,10.01
2022-10-18T19:10:05.662Z,9.93
2022-10-18T19:12:07.093Z,9.80
2022-10-18T19:14:07.111Z,9.62
2022-10-18T19:16:17.526Z,9.50
2022-10-18T19:18:18.306Z,9.46
2022-10-18T19:20:20.032Z,9.43
2022-10-18T19:22:20.404Z,9.39
2022-10-18T19:24:19.438Z,9.32
2022-10-18T19:26:26.364Z,9.27
2022-10-18T19:28:26.133Z,9.19
2022-10-18T19:30:24.676Z,9.15
2022-10-18T19:32:22.960Z,9.08
2022-10-18T19:34:22.494Z,8.96
2022-10-18T19:36:20.835Z,8.88
2022-10-18T19:38:18.992Z,8.84
2022-10-18T19:40:17.198Z,8.79
2022-10-18T19:42:22.608Z,8.74
2022-10-18T19:44:30.776Z,8.71
2022-10-18T19:46:29.119Z,8.66
2022-10-18T19:48:27.303Z,8.63
2022-10-18T19:50:27.939Z,8.58
2022-10-18T19:52:26.139Z,8.53
2022-10-18T19:54:24.724Z,8.47
2022-10-18T19:56:25.007Z,8.40
2022-10-18T19:58:23.342Z,8.32
2022-10-18T20:00:22.928Z,8.21
2022-10-18T20:02:21.123Z,8.21
2022-10-18T20:04:19.616Z,8.13
2022-10-18T20:06:25.156Z,8.17
2022-10-18T20:08:23.880Z,8.15
2022-10-18T20:10:22.004Z,8.12
2022-10-18T20:12:20.328Z,8.16
2022-10-18T20:14:18.598Z,8.16
2022-10-18T20:16:24.212Z,8.12
2022-10-18T20:18:25.333Z,8.15
2022-10-18T20:20:23.718Z,8.12
2022-10-18T20:22:21.944Z,8.04
2022-10-18T20:24:20.260Z,7.92
2022-10-18T20:26:20.835Z,7.83
2022-10-18T20:28:19.052Z,7.81
2022-10-18T20:30:17.449Z,7.82
2022-10-18T20:32:17.479Z,7.84
2022-10-18T20:34:15.771Z,7.78
2022-10-18T20:36:16.040Z,7.67
2022-10-18T20:38:14.177Z,7.63
2022-10-18T20:40:13.296Z,7.49
2022-10-18T20:42:11.700Z,7.43
2022-10-18T20:44:14.837Z,7.36
2022-10-18T20:46:13.378Z,7.29
2022-10-18T20:48:12.885Z,7.22
2022-10-18T20:50:11.313Z,7.21
2022-10-18T20:52:09.697Z,7.19
2022-10-18T20:54:08.889Z,7.23
2022-10-18T20:56:09.193Z,7.17
2022-10-18T20:58:07.883Z,7.16
2022-10-18T21:00:10.068Z,7.17
2022-10-18T21:02:08.635Z,7.15
2022-10-18T21:04:10.522Z,7.05
2022-10-18T21:06:13.364Z,6.97
2022-10-18T21:08:11.687Z,6.88
2022-10-18T21:10:10.278Z,6.78
2022-10-18T21:12:08.622Z,6.73
2022-10-18T21:14:08.280Z,6.76
2022-10-18T21:16:07.784Z,6.80
2022-10-18T21:18:05.976Z,6.81
2022-10-18T21:20:07.145Z,6.84
2022-10-18T21:22:05.397Z,6.81
2022-10-18T21:24:07.095Z,6.66
2022-10-18T21:26:06.786Z,6.55
2022-10-18T21:28:04.973Z,6.50
2022-10-18T21:30:03.328Z,6.48
2022-10-18T21:32:02.852Z,6.52
2022-10-18T21:34:02.408Z,6.54
2022-10-18T21:36:03.861Z,6.57
2022-10-18T21:38:02.223Z,6.57
2022-10-18T21:40:00.410Z,6.53
2022-10-18T21:41:59.195Z,6.56
2022-10-18T21:43:57.674Z,6.58
2022-10-18T21:46:00.235Z,6.41
2022-10-18T21:47:58.487Z,6.33
2022-10-18T21:49:56.792Z,6.31
2022-10-18T21:51:56.447Z,6.23
2022-10-18T21:53:58.268Z,6.26
2022-10-18T21:55:59.178Z,6.21
2022-10-18T21:57:57.540Z,6.30
2022-10-18T21:59:55.829Z,6.25
2022-10-18T22:01:54.094Z,6.26
2022-10-18T22:03:54.037Z,6.19
2022-10-18T22:05:58.938Z,6.21
2022-10-18T22:07:58.660Z,6.28
2022-10-18T22:09:56.910Z,6.17
2022-10-18T22:11:55.512Z,6.09
2022-10-18T22:13:54.225Z,6.07
2022-10-18T22:15:52.469Z,6.09
2022-10-18T22:17:51.284Z,6.05
2022-10-18T22:19:49.673Z,6.09
2022-10-18T22:21:48.582Z,6.17
2022-10-18T22:23:50.661Z,6.10
2022-10-18T22:25:49.344Z,6.04
2022-10-18T22:27:49.158Z,6.06
2022-10-18T22:29:47.554Z,6.01
2022-10-18T22:31:47.918Z,5.92
2022-10-18T22:33:47.100Z,5.83
2022-10-18T22:35:50.437Z,5.82
2022-10-18T22:37:48.512Z,5.76
2022-10-18T22:39:48.508Z,5.78
2022-10-18T22:41:47.503Z,5.79
2022-10-18T22:43:48.364Z,5.74
2022-10-18T22:45:46.632Z,5.66
2022-10-18T22:47:45.398Z,5.62
2022-10-18T22:49:43.741Z,5.64
2022-10-18T22:51:42.255Z,5.70
2022-10-18T22:53:42.079Z,5.62
2022-10-18T22:55:41.719Z,5.52
2022-10-18T22:57:42.523Z,5.47
2022-10-18T22:59:43.761Z,5.43
2022-10-18T23:01:42.131Z,5.45
2022-10-18T23:03:41.487Z,5.41
2022-10-18T23:05:41.340Z,5.45
2022-10-18T23:07:49.087Z,5.53
2022-10-18T23:09:47.557Z,5.49
2022-10-18T23:11:50.939Z,5.61
2022-10-18T23:13:51.964Z,5.66
2022-10-18T23:15:51.017Z,5.70
2022-10-18T23:17:50.131Z,5.66
2022-10-18T23:19:48.434Z,5.63
2022-10-18T23:21:46.780Z,5.54
2022-10-18T23:23:45.316Z,5.46
2022-10-18T23:25:42.590Z,5.52
2022-10-18T23:27:45.094Z,5.39
2022-10-18T23:29:43.393Z,5.39
2022-10-18T23:31:41.661Z,5.37
2022-10-18T23:33:40.094Z,5.44
2022-10-18T23:35:38.484Z,5.43
2022-10-18T23:37:39.846Z,5.46
2022-10-18T23:39:37.955Z,5.45
2022-10-18T23:41:36.668Z,5.44
2022-10-18T23:43:37.140Z,5.31
2022-10-18T23:45:35.344Z,5.20
2022-10-18T23:47:33.989Z,5.13
2022-10-18T23:49:32.677Z,5.06
2022-10-18T23:51:32.789Z,5.02
2022-10-18T23:53:31.886Z,5.01
2022-10-18T23:55:30.122Z,4.97
2022-10-18T23:57:28.395Z,5.02
2022-10-18T23:59:28.643Z,5.13
